createdAt,value
2022-11-05T00:00:37.165Z,27.08
2022-11-05T00:02:27.886Z,26.35
2022-11-05T00:04:08.336Z,23.45
2022-11-05T00:05:58.819Z,23.73
2022-11-05T00:07:59.318Z,23.35
2022-11-05T00:09:33.025Z,26.02
2022-11-05T00:11:05.131Z,23.50
2022-11-05T00:12:55.968Z,27.27
2022-11-05T00:14:46.467Z,25.00
2022-11-05T00:16:37.195Z,22.75
2022-11-05T00:18:09.287Z,25.90
2022-11-05T00:19:41.299Z,26.88
2022-11-05T00:21:33.524Z,27.25
2022-11-05T00:23:26.113Z,29.58
2022-11-05T00:25:16.735Z,29.17
2022-11-05T00:26:48.697Z,23.25
2022-11-05T00:28:20.720Z,23.10
2022-11-05T00:29:52.912Z,21.77
2022-11-05T00:31:25.017Z,23.70
2022-11-05T00:33:02.620Z,24.85
2022-11-05T00:34:34.742Z,23.63
2022-11-05T00:36:08.347Z,26.15
2022-11-05T00:37:42.379Z,25.70
2022-11-05T00:39:17.729Z,23.25
2022-11-05T00:40:49.759Z,22.17
2022-11-05T00:42:40.351Z,23.40
2022-11-05T00:44:31.038Z,23.30
2022-11-05T00:46:03.090Z,23.20
2022-11-05T00:47:54.031Z,24.38
2022-11-05T00:49:32.003Z,23.88
2022-11-05T00:51:04.385Z,22.80
2022-11-05T00:53:02.701Z,23.05
2022-11-05T00:54:34.663Z,24.33
2022-11-05T00:56:06.885Z,26.60
2022-11-05T00:57:38.918Z,26.75
2022-11-05T00:59:10.906Z,24.77
2022-11-05T01:00:45.230Z,21.38
2022-11-05T01:02:17.449Z,24.05
2022-11-05T01:05:23.454Z,23.90
2022-11-05T01:06:55.672Z,23.08
2022-11-05T01:08:28.384Z,25.67
2022-11-05T01:10:00.510Z,23.65
2022-11-05T01:11:37.450Z,26.13
2022-11-05T01:13:12.931Z,21.42
2022-11-05T01:14:45.482Z,22.80
2022-11-05T01:16:17.550Z,21.35
2022-11-05T01:17:51.344Z,24.92
2022-11-05T01:19:23.362Z,26.50
2022-11-05T01:20:55.284Z,25.17
2022-11-05T01:22:27.403Z,25.98
2022-11-05T01:23:59.541Z,28.45
2022-11-05T01:25:31.825Z,24.67
2022-11-05T01:27:03.815Z,25.65
2022-11-05T01:28:35.894Z,26.85
2022-11-05T01:30:09.087Z,26.63
2022-11-05T01:31:41.372Z,23.92
2022-11-05T01:33:13.631Z,23.15
2022-11-05T01:34:45.862Z,25.05
2022-11-05T01:36:21.050Z,23.23
2022-11-05T01:37:53.065Z,25.67
2022-11-05T01:39:25.095Z,25.90
2022-11-05T01:40:57.167Z,24.02
2022-11-05T01:42:30.941Z,22.85
2022-11-05T01:44:03.611Z,24.35
2022-11-05T01:45:35.734Z,26.65
2022-11-05T01:47:08.163Z,25.05
2022-11-05T01:48:40.306Z,24.85
2022-11-05T01:50:24.563Z,25.48
2022-11-05T01:51:57.591Z,22.60
2022-11-05T01:53:39.162Z,25.08
2022-11-05T01:55:11.893Z,22.50
2022-11-05T01:56:46.734Z,23.83
2022-11-05T01:58:22.712Z,21.58
2022-11-05T01:59:57.086Z,21.83
2022-11-05T02:01:29.702Z,22.38
2022-11-05T02:03:04.162Z,23.93
2022-11-05T02:04:42.365Z,23.27
2022-11-05T02:06:17.040Z,25.73
2022-11-05T02:07:49.355Z,23.90
2022-11-05T02:09:25.010Z,22.08
2022-11-05T02:10:57.583Z,22.33
2022-11-05T02:12:30.609Z,23.23
2022-11-05T02:14:02.601Z,23.45
2022-11-05T02:15:52.604Z,23.48
2022-11-05T02:17:48.066Z,21.60
2022-11-05T02:19:56.894Z,22.52
2022-11-05T02:22:04.077Z,28.13
2022-11-05T02:24:08.020Z,26.40
2022-11-05T02:26:08.077Z,23.23
2022-11-05T02:28:03.711Z,27.90
2022-11-05T02:30:06.865Z,26.65
2022-11-05T02:32:00.147Z,23.85
2022-11-05T02:34:03.966Z,25.67
2022-11-05T02:35:56.691Z,25.63
2022-11-05T02:37:39.645Z,21.20
2022-11-05T02:40:05.539Z,25.60
2022-11-05T02:41:51.704Z,24.75
2022-11-05T02:43:34.051Z,25.73
2022-11-05T02:45:11.940Z,24.17
2022-11-05T02:47:02.915Z,23.35
2022-11-05T02:48:53.472Z,22.88
2022-11-05T02:50:36.756Z,22.83
2022-11-05T02:52:31.984Z,23.13
2022-11-05T02:54:33.004Z,24.75
2022-11-05T02:56:18.960Z,23.33
2022-11-05T02:57:51.054Z,25.48
2022-11-05T02:59:23.054Z,21.75
2022-11-05T03:00:57.521Z,24.27
2022-11-05T03:04:02.027Z,20.48
2022-11-05T03:05:44.320Z,23.35
2022-11-05T03:07:38.726Z,20.83
2022-11-05T03:09:28.763Z,20.52
2022-11-05T03:11:22.321Z,21.70
2022-11-05T03:12:54.353Z,22.10
2022-11-05T03:14:46.011Z,21.92
2022-11-05T03:16:46.347Z,18.92
2022-11-05T03:18:27.702Z,21.77
2022-11-05T03:20:18.104Z,23.33
2022-11-05T03:21:54.443Z,21.15
2022-11-05T03:24:04.516Z,18.08
2022-11-05T03:25:41.375Z,19.95
2022-11-05T03:27:16.553Z,19.75
2022-11-05T03:28:55.272Z,21.98
2022-11-05T03:30:27.405Z,19.70
2022-11-05T03:33:32.054Z,21.45
2022-11-05T03:35:29.314Z,23.10
2022-11-05T03:37:02.159Z,20.55
2022-11-05T03:38:39.438Z,20.55
2022-11-05T03:40:12.674Z,20.40
2022-11-05T03:41:45.877Z,20.25
2022-11-05T03:43:19.687Z,19.20
2022-11-05T03:44:56.201Z,20.60
2022-11-05T03:46:37.259Z,22.20
2022-11-05T03:48:11.304Z,20.83
2022-11-05T03:49:56.485Z,20.35
2022-11-05T03:51:50.232Z,19.27
2022-11-05T03:53:26.019Z,22.40
2022-11-05T03:54:58.055Z,23.77
2022-11-05T03:56:55.727Z,21.92
2022-11-05T03:58:28.480Z,26.58
2022-11-05T04:00:00.614Z,29.02
2022-11-05T04:01:32.852Z,26.98
2022-11-05T04:03:05.025Z,19.98
2022-11-05T04:04:40.445Z,18.80
2022-11-05T04:06:30.816Z,19.52
2022-11-05T04:08:21.396Z,21.50
2022-11-05T04:10:15.063Z,21.45
2022-11-05T04:12:05.827Z,23.25
2022-11-05T04:13:37.999Z,25.52
2022-11-05T04:15:09.991Z,20.70
2022-11-05T04:17:00.606Z,20.90
2022-11-05T04:18:32.684Z,19.10
2022-11-05T04:20:23.604Z,21.83
2022-11-05T04:22:14.241Z,22.30
2022-11-05T04:24:04.854Z,20.50
2022-11-05T04:25:36.815Z,22.33
2022-11-05T04:27:11.511Z,25.80
2022-11-05T04:29:07.623Z,23.85
2022-11-05T04:30:40.687Z,25.55
2022-11-05T04:32:12.831Z,24.60
2022-11-05T04:33:44.818Z,22.10
2022-11-05T04:35:16.928Z,22.33
2022-11-05T04:36:50.208Z,19.80
2022-11-05T04:38:22.326Z,20.15
2022-11-05T04:39:54.419Z,21.73
2022-11-05T04:41:26.742Z,23.17
2022-11-05T04:42:58.807Z,22.85
2022-11-05T04:44:30.880Z,22.83
2022-11-05T04:46:02.930Z,24.40
2022-11-05T04:47:34.897Z,25.25
2022-11-05T04:49:06.990Z,28.35
2022-11-05T04:50:39.622Z,23.88
2022-11-05T04:52:11.693Z,21.80
2022-11-05T04:53:43.808Z,24.02
2022-11-05T04:55:16.246Z,23.70
2022-11-05T04:56:48.271Z,26.20
2022-11-05T04:58:20.354Z,21.40
2022-11-05T04:59:52.544Z,20.50
2022-11-05T05:01:25.793Z,23.27
2022-11-05T05:02:58.007Z,21.02
2022-11-05T05:04:30.009Z,20.83
2022-11-05T05:06:04.006Z,19.63
2022-11-05T05:07:36.441Z,20.88
2022-11-05T05:09:08.551Z,20.98
2022-11-05T05:10:40.505Z,20.50
2022-11-05T05:12:12.839Z,19.33
2022-11-05T05:13:45.259Z,20.38
2022-11-05T05:15:17.370Z,24.02
2022-11-05T05:16:49.366Z,19.98
2022-11-05T05:18:21.342Z,19.60
2022-11-05T05:20:12.094Z,22.27
2022-11-05T05:21:44.085Z,26.23
2022-11-05T05:23:16.075Z,26.80
2022-11-05T05:24:52.571Z,29.65
2022-11-05T05:26:25.024Z,21.02
2022-11-05T05:27:58.385Z,23.50
2022-11-05T05:29:30.379Z,27.02
2022-11-05T05:31:02.507Z,23.48
2022-11-05T05:32:34.491Z,33.00
2022-11-05T05:34:07.880Z,38.40
2022-11-05T05:35:42.425Z,34.60
2022-11-05T05:37:14.992Z,26.35
2022-11-05T05:38:47.359Z,28.00
2022-11-05T05:40:19.377Z,32.67
2022-11-05T05:41:51.676Z,28.35
2022-11-05T05:43:23.751Z,25.17
2022-11-05T05:44:55.756Z,26.20
2022-11-05T05:46:27.864Z,27.85
2022-11-05T05:48:00.156Z,24.83
2022-11-05T05:49:32.730Z,28.02
2022-11-05T05:51:07.155Z,22.57
2022-11-05T05:52:39.377Z,23.40
2022-11-05T05:54:12.348Z,28.55
2022-11-05T05:55:44.529Z,22.08
2022-11-05T05:57:16.877Z,27.17
2022-11-05T05:58:49.253Z,26.85
2022-11-05T06:00:24.964Z,24.13
2022-11-05T06:01:57.137Z,24.42
2022-11-05T06:03:29.295Z,28.17
2022-11-05T06:05:01.327Z,27.63
2022-11-05T06:06:33.486Z,25.95
2022-11-05T06:08:06.217Z,29.00
2022-11-05T06:09:38.628Z,37.25
2022-11-05T06:11:11.094Z,32.10
2022-11-05T06:12:43.917Z,35.63
2022-11-05T06:14:16.112Z,31.75
2022-11-05T06:15:48.321Z,28.60
2022-11-05T06:17:20.599Z,34.38
2022-11-05T06:18:52.776Z,33.58
2022-11-05T06:20:24.939Z,33.15
2022-11-05T06:21:57.120Z,33.10
2022-11-05T06:23:32.039Z,37.90
2022-11-05T06:25:05.333Z,34.03
2022-11-05T06:26:43.148Z,38.45
2022-11-05T06:28:15.541Z,32.40
2022-11-05T06:31:20.807Z,31.33
2022-11-05T06:32:53.237Z,29.33
2022-11-05T06:34:25.568Z,31.30
2022-11-05T06:36:04.332Z,31.92
2022-11-05T06:37:36.674Z,30.15
2022-11-05T06:39:12.811Z,26.58
2022-11-05T06:40:44.967Z,27.92
2022-11-05T06:42:18.682Z,25.00
2022-11-05T06:43:51.396Z,23.55
2022-11-05T06:45:23.474Z,27.13
2022-11-05T06:46:55.740Z,21.70
2022-11-05T06:48:28.934Z,24.35
2022-11-05T06:50:00.948Z,25.38
2022-11-05T06:51:33.086Z,29.08
2022-11-05T06:53:06.585Z,24.67
2022-11-05T06:56:10.890Z,24.40
2022-11-05T06:57:42.913Z,27.27
2022-11-05T06:59:15.239Z,27.75
2022-11-05T07:00:47.606Z,30.30
2022-11-05T07:02:19.882Z,31.73
2022-11-05T07:03:52.035Z,30.45
2022-11-05T07:05:27.489Z,27.38
2022-11-05T07:07:01.409Z,28.13
2022-11-05T07:08:38.219Z,26.45
2022-11-05T07:10:16.373Z,27.58
2022-11-05T07:11:48.589Z,29.50
2022-11-05T07:13:20.928Z,33.03
2022-11-05T07:14:53.044Z,31.20
2022-11-05T07:16:25.279Z,31.35
2022-11-05T07:18:01.458Z,27.98
2022-11-05T07:19:33.898Z,31.00
2022-11-05T07:21:06.305Z,27.98
2022-11-05T07:22:38.776Z,33.67
2022-11-05T07:24:11.203Z,31.63
2022-11-05T07:25:44.188Z,31.90
2022-11-05T07:27:17.236Z,32.30
2022-11-05T07:28:50.561Z,32.80
2022-11-05T07:30:23.119Z,34.30
2022-11-05T07:31:55.403Z,34.08
2022-11-05T07:33:31.151Z,39.88
2022-11-05T07:35:07.245Z,33.15
2022-11-05T07:38:12.890Z,33.80
2022-11-05T07:39:45.261Z,35.50
2022-11-05T07:41:17.853Z,36.55
2022-11-05T07:42:52.445Z,31.95
2022-11-05T07:44:25.398Z,32.55
2022-11-05T07:45:57.608Z,35.42
2022-11-05T07:47:30.282Z,39.42
2022-11-05T07:49:02.655Z,34.75
2022-11-05T07:50:38.436Z,35.92
2022-11-05T07:52:10.807Z,36.22
2022-11-05T07:53:45.435Z,33.20
2022-11-05T07:55:19.363Z,36.97
2022-11-05T07:56:51.814Z,32.78
2022-11-05T07:58:33.172Z,37.58
2022-11-05T08:00:05.913Z,31.05
2022-11-05T08:01:38.280Z,32.28
2022-11-05T08:03:16.580Z,32.25
2022-11-05T08:04:49.157Z,32.67
2022-11-05T08:06:21.348Z,33.55
2022-11-05T08:07:57.752Z,35.35
2022-11-05T08:09:29.971Z,36.75
2022-11-05T08:11:06.440Z,32.13
2022-11-05T08:12:38.507Z,39.22
2022-11-05T08:14:10.750Z,32.63
2022-11-05T08:15:43.791Z,35.08
2022-11-05T08:17:18.512Z,37.92
2022-11-05T08:18:51.039Z,35.28
2022-11-05T08:20:23.388Z,35.05
2022-11-05T08:21:55.547Z,35.15
2022-11-05T08:23:28.773Z,38.53
2022-11-05T08:25:05.649Z,35.75
2022-11-05T08:26:39.205Z,39.55
2022-11-05T08:29:59.514Z,35.60
2022-11-05T08:31:32.487Z,33.53
2022-11-05T08:33:11.572Z,35.33
2022-11-05T08:34:44.107Z,41.25
2022-11-05T08:36:16.436Z,36.45
2022-11-05T08:37:48.592Z,34.35
2022-11-05T08:39:20.913Z,38.05
2022-11-05T08:40:58.056Z,34.70
2022-11-05T08:42:30.389Z,36.72
2022-11-05T08:44:02.928Z,32.67
2022-11-05T08:45:38.292Z,28.88
2022-11-05T08:47:10.646Z,33.13
2022-11-05T08:48:43.256Z,36.08
2022-11-05T08:50:15.603Z,29.52
2022-11-05T08:51:48.168Z,31.92
2022-11-05T08:53:20.847Z,32.38
2022-11-05T08:54:53.318Z,32.13
2022-11-05T08:56:25.644Z,34.83
2022-11-05T08:58:03.147Z,30.42
2022-11-05T08:59:35.457Z,30.60
2022-11-05T09:01:07.679Z,29.83
2022-11-05T09:02:40.316Z,31.38
2022-11-05T09:04:12.544Z,25.27
2022-11-05T09:05:45.294Z,25.42
2022-11-05T09:07:17.663Z,25.70
2022-11-05T09:08:49.990Z,25.73
2022-11-05T09:10:22.781Z,27.80
2022-11-05T09:12:11.667Z,23.75
2022-11-05T09:13:45.159Z,29.63
2022-11-05T09:15:17.749Z,26.65
2022-11-05T09:16:49.917Z,27.73
2022-11-05T09:18:24.718Z,27.25
2022-11-05T09:19:56.875Z,26.13
2022-11-05T09:21:29.208Z,24.70
2022-11-05T09:23:01.404Z,24.73
2022-11-05T09:24:33.768Z,26.33
2022-11-05T09:26:06.318Z,26.45
2022-11-05T09:27:38.785Z,22.95
2022-11-05T09:29:14.405Z,24.17
2022-11-05T09:30:49.158Z,23.45
2022-11-05T09:32:22.183Z,25.02
2022-11-05T09:33:54.498Z,27.33
2022-11-05T09:35:26.861Z,28.75
2022-11-05T09:36:59.306Z,25.63
2022-11-05T09:40:16.615Z,24.77
2022-11-05T09:41:49.937Z,22.80
2022-11-05T09:45:04.702Z,20.60
2022-11-05T09:46:58.199Z,25.25
2022-11-05T09:48:32.660Z,17.92
2022-11-05T09:50:13.442Z,21.15
2022-11-05T09:51:45.737Z,24.30
2022-11-05T09:53:20.542Z,21.50
2022-11-05T09:54:54.822Z,16.60
2022-11-05T09:56:29.209Z,20.85
2022-11-05T09:58:04.302Z,20.67
2022-11-05T09:59:42.697Z,23.08
2022-11-05T10:01:36.506Z,21.42
2022-11-05T10:03:13.785Z,21.38
2022-11-05T10:04:48.995Z,19.90
2022-11-05T10:06:25.570Z,19.83
2022-11-05T10:08:06.589Z,22.48
2022-11-05T10:09:48.312Z,21.17
2022-11-05T10:11:36.002Z,19.83
2022-11-05T10:14:51.991Z,24.88
2022-11-05T10:16:40.187Z,17.55
2022-11-05T10:18:35.991Z,18.48
2022-11-05T10:20:43.446Z,18.60
2022-11-05T10:22:18.642Z,22.40
2022-11-05T10:23:50.747Z,23.48
2022-11-05T10:25:25.901Z,19.08
2022-11-05T10:26:58.222Z,18.75
2022-11-05T10:28:33.447Z,20.63
2022-11-05T10:30:06.725Z,21.67
2022-11-05T10:33:13.302Z,18.85
2022-11-05T10:34:45.982Z,20.35
2022-11-05T10:36:28.624Z,19.60
2022-11-05T10:38:00.817Z,18.98
2022-11-05T10:39:34.223Z,17.65
2022-11-05T10:41:27.952Z,16.08
2022-11-05T10:43:19.970Z,21.48
2022-11-05T10:45:22.896Z,21.45
2022-11-05T10:47:07.266Z,20.35
2022-11-05T10:48:45.869Z,20.90
2022-11-05T10:50:26.360Z,19.58
2022-11-05T10:52:00.771Z,20.25
2022-11-05T10:53:35.576Z,20.75
2022-11-05T10:55:16.874Z,19.73
2022-11-05T10:56:49.336Z,18.88
2022-11-05T10:58:27.789Z,19.27
2022-11-05T11:00:24.636Z,17.33
2022-11-05T11:02:00.477Z,18.77
2022-11-05T11:03:46.118Z,17.67
2022-11-05T11:05:39.714Z,16.90
2022-11-05T11:07:29.840Z,18.02
2022-11-05T11:09:04.705Z,19.05
2022-11-05T11:10:54.158Z,18.73
2022-11-05T11:12:30.014Z,17.63
2022-11-05T11:14:18.601Z,18.40
2022-11-05T11:15:51.595Z,16.23
2022-11-05T11:17:30.060Z,16.15
2022-11-05T11:19:03.786Z,17.27
2022-11-05T11:20:44.775Z,17.80
2022-11-05T11:22:20.106Z,26.08
2022-11-05T11:24:05.695Z,15.65
2022-11-05T11:25:48.681Z,16.58
2022-11-05T11:27:30.293Z,14.13
2022-11-05T11:29:08.579Z,19.02
2022-11-05T11:30:47.937Z,18.40
2022-11-05T11:32:21.375Z,18.90
2022-11-05T11:34:17.930Z,20.75
2022-11-05T11:35:50.466Z,18.90
2022-11-05T11:37:27.546Z,16.70
2022-11-05T11:39:01.777Z,19.73
2022-11-05T11:40:36.888Z,19.60
2022-11-05T11:42:15.321Z,20.58
2022-11-05T11:43:47.880Z,20.80
2022-11-05T11:45:33.684Z,18.30
2022-11-05T11:47:12.823Z,18.02
2022-11-05T11:48:48.037Z,20.60
2022-11-05T11:50:36.339Z,17.90
2022-11-05T11:52:14.943Z,21.45
2022-11-05T11:53:57.920Z,19.92
2022-11-05T11:55:30.288Z,21.48
2022-11-05T11:57:03.190Z,21.10
2022-11-05T11:58:39.992Z,21.65
2022-11-05T12:00:13.171Z,24.15
2022-11-05T12:03:36.794Z,23.02
2022-11-05T12:05:35.234Z,24.60
2022-11-05T12:07:19.474Z,25.83
2022-11-05T12:09:01.981Z,27.98
2022-11-05T12:10:41.223Z,21.75
2022-11-05T12:12:14.778Z,22.83
2022-11-05T12:14:00.551Z,19.60
2022-11-05T12:15:51.300Z,22.30
2022-11-05T12:17:32.290Z,23.83
2022-11-05T12:19:36.869Z,25.13
2022-11-05T12:21:52.169Z,21.40
2022-11-05T12:23:44.072Z,21.88
2022-11-05T12:25:27.543Z,21.35
2022-11-05T12:27:25.560Z,23.60
2022-11-05T12:29:19.165Z,22.42
2022-11-05T12:31:06.684Z,22.33
2022-11-05T12:33:03.475Z,26.63
2022-11-05T12:35:02.144Z,22.50
2022-11-05T12:37:05.593Z,24.15
2022-11-05T12:39:01.216Z,22.88
2022-11-05T12:40:37.326Z,24.67
2022-11-05T12:42:19.958Z,27.77
2022-11-05T12:44:07.363Z,24.65
2022-11-05T12:45:47.833Z,21.90
2022-11-05T12:47:49.373Z,21.30
2022-11-05T12:49:31.360Z,25.00
2022-11-05T12:51:21.925Z,23.35
2022-11-05T12:53:09.738Z,25.30
2022-11-05T12:55:05.475Z,24.05
2022-11-05T12:56:46.416Z,26.63
2022-11-05T12:58:38.988Z,29.20
2022-11-05T13:00:25.276Z,23.20
2022-11-05T13:02:18.836Z,26.25
2022-11-05T14:42:28.354Z,30.60
2022-11-05T14:44:06.398Z,34.95
2022-11-05T14:45:53.671Z,30.08
2022-11-05T14:47:28.959Z,31.60
2022-11-05T14:49:09.124Z,24.58
2022-11-05T14:50:42.673Z,44.35
2022-11-05T14:52:15.992Z,35.08
2022-11-05T14:53:48.604Z,35.92
2022-11-05T14:55:30.513Z,24.33
2022-11-05T14:57:02.937Z,25.00
2022-11-05T14:58:37.261Z,25.33
2022-11-05T15:00:41.020Z,26.08
2022-11-05T15:02:19.681Z,28.92
2022-11-05T15:04:18.544Z,29.67
2022-11-05T15:05:53.608Z,42.67
2022-11-05T15:07:36.040Z,42.92
2022-11-05T15:09:19.194Z,32.25
2022-11-05T15:10:51.535Z,38.42
2022-11-05T15:12:45.376Z,33.40
2022-11-05T15:14:31.256Z,41.63
2022-11-05T15:16:04.498Z,34.75
2022-11-05T15:17:46.308Z,35.35
2022-11-05T15:19:34.060Z,32.50
2022-11-05T15:21:07.986Z,30.45
2022-11-05T15:22:50.009Z,38.47
2022-11-05T15:24:22.638Z,35.78
2022-11-05T15:26:19.465Z,41.97
2022-11-05T15:28:20.881Z,43.15
2022-11-05T15:29:53.267Z,39.35
2022-11-05T15:31:35.649Z,37.47
2022-11-05T15:33:22.229Z,33.17
2022-11-05T15:34:56.193Z,36.97
2022-11-05T15:36:34.982Z,36.75
2022-11-05T15:38:18.474Z,37.53
2022-11-05T15:39:52.445Z,39.97
2022-11-05T15:41:28.962Z,42.10
2022-11-05T15:43:18.112Z,31.73
2022-11-05T15:44:55.168Z,37.15
2022-11-05T15:46:29.273Z,32.83
2022-11-05T15:48:13.529Z,32.03
2022-11-05T15:49:51.760Z,30.92
2022-11-05T15:51:27.177Z,29.40
2022-11-05T15:53:20.718Z,33.40
2022-11-05T15:55:13.320Z,46.58
2022-11-05T15:56:52.372Z,66.93
2022-11-05T15:58:24.776Z,74.68
2022-11-05T15:59:59.986Z,56.85
2022-11-05T16:01:37.818Z,57.58
2022-11-05T16:03:30.494Z,71.80
2022-11-05T16:05:07.235Z,62.42
2022-11-05T16:06:40.825Z,54.33
2022-11-05T16:09:54.548Z,49.38
2022-11-05T16:11:27.700Z,49.63
2022-11-05T16:13:38.756Z,54.28
2022-11-05T16:15:10.981Z,45.05
2022-11-05T16:16:43.904Z,46.22
2022-11-05T16:18:27.423Z,38.88
2022-11-05T16:19:59.654Z,40.22
2022-11-05T16:21:31.897Z,38.35
2022-11-05T16:23:06.949Z,37.20
2022-11-05T16:24:39.215Z,34.13
2022-11-05T16:28:32.212Z,33.35
2022-11-05T16:30:05.011Z,41.75
2022-11-05T16:31:37.544Z,49.88
2022-11-05T16:33:14.111Z,49.27
2022-11-05T16:34:48.988Z,33.83
2022-11-05T16:36:21.902Z,33.42
2022-11-05T16:37:54.138Z,29.90
2022-11-05T16:39:27.098Z,30.63
2022-11-05T16:41:00.864Z,30.75
2022-11-05T16:42:44.978Z,34.95
2022-11-05T16:44:17.469Z,34.15
2022-11-05T16:45:50.070Z,31.47
2022-11-05T16:47:23.289Z,34.83
2022-11-05T16:48:56.450Z,33.95
2022-11-05T16:50:32.334Z,38.28
2022-11-05T16:52:09.002Z,39.33
2022-11-05T16:53:41.757Z,34.40
2022-11-05T16:55:15.404Z,32.38
2022-11-05T16:56:47.836Z,37.80
2022-11-05T16:58:25.056Z,30.20
2022-11-05T16:59:59.494Z,30.42
2022-11-05T17:01:32.201Z,33.00
2022-11-05T17:03:04.732Z,27.27
2022-11-05T17:04:36.894Z,30.02
2022-11-05T17:06:09.428Z,29.60
2022-11-05T17:07:41.759Z,28.90
2022-11-05T17:09:14.416Z,28.42
2022-11-05T17:10:46.559Z,33.10
2022-11-05T17:12:18.913Z,32.85
2022-11-05T17:13:54.166Z,28.98
2022-11-05T17:15:31.543Z,30.00
2022-11-05T17:17:04.162Z,30.38
2022-11-05T17:18:36.405Z,31.67
2022-11-05T17:20:15.397Z,30.15
2022-11-05T17:21:47.935Z,29.70
2022-11-05T17:23:22.273Z,31.83
2022-11-05T17:24:54.745Z,31.25
2022-11-05T17:26:27.268Z,26.13
2022-11-05T17:27:59.735Z,28.27
2022-11-05T17:29:32.114Z,28.55
2022-11-05T17:31:06.682Z,29.98
2022-11-05T17:32:39.063Z,33.90
2022-11-05T17:34:11.366Z,28.30
2022-11-05T17:35:43.815Z,28.50
2022-11-05T17:38:49.127Z,35.05
2022-11-05T17:40:25.645Z,30.58
2022-11-05T17:41:57.795Z,27.30
2022-11-05T17:43:29.821Z,28.50
2022-11-05T17:45:02.178Z,28.95
2022-11-05T17:46:34.396Z,30.38
2022-11-05T17:48:06.810Z,28.70
2022-11-05T17:49:39.019Z,31.13
2022-11-05T17:51:12.940Z,31.08
2022-11-05T17:52:45.564Z,30.30
2022-11-05T17:54:17.832Z,33.63
2022-11-05T17:55:50.183Z,30.40
2022-11-05T17:57:22.572Z,31.55
2022-11-05T17:58:55.863Z,29.23
2022-11-05T18:00:28.166Z,33.55
2022-11-05T18:02:00.447Z,31.92
2022-11-05T18:03:33.149Z,27.70
2022-11-05T18:05:06.193Z,31.25
2022-11-05T18:08:10.592Z,27.85
2022-11-05T18:09:42.863Z,27.88
2022-11-05T18:11:15.086Z,29.58
2022-11-05T18:12:47.462Z,30.27
2022-11-05T18:14:23.900Z,28.42
2022-11-05T18:15:56.495Z,28.13
2022-11-05T18:17:30.293Z,28.55
2022-11-05T18:19:03.084Z,29.48
2022-11-05T18:20:35.748Z,28.00
2022-11-05T18:22:07.906Z,33.83
2022-11-05T18:23:40.230Z,27.27
2022-11-05T18:25:14.396Z,25.05
2022-11-05T18:26:46.718Z,30.08
2022-11-05T18:28:19.014Z,27.08
2022-11-05T18:29:51.613Z,27.20
2022-11-05T18:31:25.442Z,28.20
2022-11-05T18:32:57.620Z,26.27
2022-11-05T18:34:30.381Z,26.02
2022-11-05T18:36:02.689Z,25.52
2022-11-05T18:37:35.123Z,29.77
2022-11-05T18:39:08.926Z,28.70
2022-11-05T18:40:41.145Z,30.73
2022-11-05T18:42:13.437Z,29.23
2022-11-05T18:43:45.646Z,30.48
2022-11-05T18:45:17.633Z,28.13
2022-11-05T18:46:58.814Z,30.25
2022-11-05T18:48:31.169Z,30.77
2022-11-05T18:50:04.746Z,28.52
2022-11-05T18:51:37.366Z,26.00
2022-11-05T18:53:09.588Z,26.00
2022-11-05T18:54:41.900Z,30.02
2022-11-05T18:56:17.123Z,28.58
2022-11-05T18:57:49.354Z,32.03
2022-11-05T18:59:36.802Z,31.42
2022-11-05T19:01:26.874Z,33.80
2022-11-05T19:02:59.095Z,28.60
2022-11-05T19:04:31.839Z,31.30
2022-11-05T19:06:04.751Z,29.83
2022-11-05T19:07:40.738Z,29.05
2022-11-05T19:09:15.293Z,30.60
2022-11-05T19:10:51.681Z,28.17
2022-11-05T19:12:23.919Z,31.35
2022-11-05T19:13:56.215Z,28.50
2022-11-05T19:15:28.394Z,30.23
2022-11-05T19:17:01.456Z,32.08
2022-11-05T19:18:33.703Z,30.48
2022-11-05T19:20:06.817Z,30.50
2022-11-05T19:21:39.584Z,30.65
2022-11-05T19:23:13.985Z,32.67
2022-11-05T19:24:46.101Z,28.52
2022-11-05T19:26:28.385Z,33.92
2022-11-05T19:28:02.192Z,38.35
2022-11-05T19:29:34.627Z,30.88
2022-11-05T19:31:10.250Z,31.20
2022-11-05T19:32:42.495Z,29.75
2022-11-05T19:34:15.128Z,31.00
2022-11-05T19:35:47.274Z,26.17
2022-11-05T19:37:20.352Z,28.05
2022-11-05T19:39:00.796Z,29.42
2022-11-05T19:40:32.911Z,28.30
2022-11-05T19:42:05.477Z,29.95
2022-11-05T19:43:39.099Z,34.20
2022-11-05T19:45:38.241Z,27.83
2022-11-05T19:47:03.903Z,31.23
2022-11-05T19:48:37.454Z,30.42
2022-11-05T19:50:10.054Z,33.63
2022-11-05T19:51:43.319Z,43.17
2022-11-05T19:53:15.495Z,41.92
2022-11-05T19:54:47.669Z,30.15
2022-11-05T19:56:22.332Z,31.80
2022-11-05T19:57:54.705Z,27.58
2022-11-05T19:59:27.085Z,26.05
2022-11-05T20:00:59.388Z,26.13
2022-11-05T20:02:31.805Z,27.80
2022-11-05T20:05:36.090Z,28.98
2022-11-05T20:07:08.246Z,29.57
2022-11-05T20:08:59.677Z,30.13
2022-11-05T20:10:32.852Z,27.38
2022-11-05T20:12:05.012Z,29.45
2022-11-05T20:13:37.619Z,29.13
2022-11-05T20:15:09.957Z,29.23
2022-11-05T20:16:43.231Z,27.45
2022-11-05T20:18:16.542Z,29.90
2022-11-05T20:19:48.751Z,27.73
2022-11-05T20:21:20.860Z,28.55
2022-11-05T20:22:53.089Z,29.05
2022-11-05T20:24:25.705Z,33.28
2022-11-05T20:25:59.132Z,30.48
2022-11-05T20:27:31.256Z,30.20
2022-11-05T20:29:03.599Z,32.63
2022-11-05T20:30:36.130Z,32.25
2022-11-05T20:32:08.660Z,33.30
2022-11-05T20:35:13.437Z,33.42
2022-11-05T20:36:45.527Z,32.10
2022-11-05T20:38:17.872Z,31.95
2022-11-05T20:39:49.908Z,29.17
2022-11-05T20:41:22.363Z,31.88
2022-11-05T20:42:54.368Z,30.10
2022-11-05T20:44:26.817Z,36.45
2022-11-05T20:45:59.215Z,29.15
2022-11-05T20:47:31.347Z,31.48
2022-11-05T20:49:03.769Z,30.00
2022-11-05T20:50:40.323Z,28.73
2022-11-05T20:52:17.447Z,30.20
2022-11-05T20:53:49.615Z,31.15
2022-11-05T20:55:24.354Z,36.60
2022-11-05T20:56:56.582Z,31.30
2022-11-05T20:58:28.746Z,31.65
2022-11-05T21:00:01.039Z,30.27
2022-11-05T21:01:34.499Z,29.35
2022-11-05T21:03:07.457Z,43.90
2022-11-05T21:04:43.123Z,32.35
2022-11-05T21:06:16.504Z,31.95
2022-11-05T21:07:48.541Z,35.30
2022-11-05T21:09:20.707Z,36.10
2022-11-05T21:10:53.012Z,31.50
2022-11-05T21:12:25.138Z,41.08
2022-11-05T21:13:57.247Z,44.60
2022-11-05T21:15:29.229Z,43.28
2022-11-05T21:17:01.302Z,46.25
2022-11-05T21:18:35.405Z,37.85
2022-11-05T21:20:08.094Z,49.28
2022-11-05T21:21:41.192Z,45.00
2022-11-05T21:23:14.174Z,42.95
2022-11-05T21:24:46.191Z,42.10
2022-11-05T21:26:18.973Z,44.25
2022-11-05T21:27:51.067Z,38.80
2022-11-05T21:29:25.796Z,39.40
2022-11-05T21:31:01.912Z,37.05
2022-11-05T21:32:33.972Z,38.70
2022-11-05T21:34:06.054Z,34.30
2022-11-05T21:35:44.202Z,36.72
2022-11-05T21:37:16.438Z,33.90
2022-11-05T21:38:48.444Z,34.20
2022-11-05T21:40:20.497Z,35.15
2022-11-05T21:41:52.716Z,31.85
2022-11-05T21:43:24.744Z,36.88
2022-11-05T21:45:00.384Z,33.72
2022-11-05T21:46:32.797Z,32.90
2022-11-05T21:48:05.113Z,33.05
2022-11-05T21:49:37.894Z,32.10
2022-11-05T21:51:31.943Z,33.70
2022-11-05T21:53:22.792Z,32.13
2022-11-05T21:55:13.443Z,34.08
2022-11-05T21:57:09.714Z,31.50
2022-11-05T21:59:01.644Z,35.83
2022-11-05T22:00:33.831Z,34.88
2022-11-05T22:02:07.285Z,31.05
2022-11-05T22:03:39.600Z,33.58
2022-11-05T22:05:11.693Z,29.77
2022-11-05T22:06:43.711Z,29.67
2022-11-05T22:08:15.844Z,30.13
2022-11-05T22:09:48.205Z,30.92
2022-11-05T22:11:20.265Z,33.58
2022-11-05T22:12:52.325Z,34.05
2022-11-05T22:14:25.053Z,33.33
2022-11-05T22:15:57.420Z,31.02
2022-11-05T22:17:29.511Z,34.17
2022-11-05T22:19:01.596Z,32.38
2022-11-05T22:20:33.631Z,34.13
2022-11-05T22:22:06.345Z,29.40
2022-11-05T22:23:38.448Z,33.20
2022-11-05T22:25:13.783Z,37.13
2022-11-05T22:26:46.503Z,31.90
2022-11-05T22:28:18.554Z,30.40
2022-11-05T22:29:51.012Z,31.20
2022-11-05T22:31:23.270Z,31.20
2022-11-05T22:34:27.459Z,33.33
2022-11-05T22:35:59.457Z,31.95
2022-11-05T22:37:31.660Z,34.05
2022-11-05T22:39:04.532Z,32.00
2022-11-05T22:40:38.611Z,33.38
2022-11-05T22:42:10.716Z,32.13
2022-11-05T22:43:42.740Z,33.60
2022-11-05T22:45:14.778Z,27.25
2022-11-05T22:46:46.834Z,30.27
2022-11-05T22:48:18.953Z,31.80
2022-11-05T22:49:51.412Z,32.72
2022-11-05T22:51:32.032Z,33.67
2022-11-05T22:53:04.086Z,35.08
2022-11-05T22:54:39.220Z,28.48
2022-11-05T22:56:16.752Z,31.33
2022-11-05T22:57:49.091Z,31.45